sensor_id;sensor_type;location;lat;lon;timestamp;P1;durP1;ratioP1;P2;durP2;ratioP2
65373;SDS011;52070;53.760;9.678;2024-03-23T00:54:59;21.15;;;3.85;;
65373;SDS011;52070;53.760;9.678;2024-03-23T00:57:25;19.35;;;2.92;;
65373;SDS011;52070;53.760;9.678;2024-03-23T00:59:52;21.88;;;2.83;;
65373;SDS011;52070;53.760;9.678;2024-03-23T01:02:18;34.72;;;3.75;;
65373;SDS011;52070;53.760;9.678;2024-03-23T01:04:45;27.92;;;3.53;;
65373;SDS011;52070;53.760;9.678;2024-03-23T01:07:11;23.60;;;2.97;;
65373;SDS011;52070;53.760;9.678;2024-03-23T01:09:38;25.90;;;3.08;;
65373;SDS011;52070;53.760;9.678;2024-03-23T01:12:04;21.15;;;4.00;;
65373;SDS011;52070;53.760;9.678;2024-03-23T01:14:31;21.90;;;2.58;;
65373;SDS011;52070;53.760;9.678;2024-03-23T01:16:58;24.48;;;3.58;;
65373;SDS011;52070;53.760;9.678;2024-03-23T01:19:24;25.20;;;3.58;;
65373;SDS011;52070;53.760;9.678;2024-03-23T01:21:50;28.50;;;4.05;;
65373;SDS011;52070;53.760;9.678;2024-03-23T01:24:17;20.33;;;3.75;;
65373;SDS011;52070;53.760;9.678;2024-03-23T01:26:43;20.20;;;2.78;;
65373;SDS011;52070;53.760;9.678;2024-03-23T01:29:10;26.08;;;3.35;;
65373;SDS011;52070;53.760;9.678;2024-03-23T01:31:36;16.45;;;2.67;;
65373;SDS011;52070;53.760;9.678;2024-03-23T01:34:03;16.60;;;2.40;;
65373;SDS011;52070;53.760;9.678;2024-03-23T01:36:29;18.90;;;2.88;;
65373;SDS011;52070;53.760;9.678;2024-03-23T01:38:56;21.42;;;3.28;;
65373;SDS011;52070;53.760;9.678;2024-03-23T01:41:23;18.20;;;2.75;;
65373;SDS011;52070;53.760;9.678;2024-03-23T01:43:50;19.33;;;2.83;;
65373;SDS011;52070;53.760;9.678;2024-03-23T01:46:16;25.13;;;3.13;;
65373;SDS011;52070;53.760;9.678;2024-03-23T01:48:43;26.48;;;3.15;;
65373;SDS011;52070;53.760;9.678;2024-03-23T01:51:09;20.25;;;3.15;;
65373;SDS011;52070;53.760;9.678;2024-03-23T01:53:36;23.15;;;3.33;;
65373;SDS011;52070;53.760;9.678;2024-03-23T01:56:02;28.08;;;2.75;;
65373;SDS011;52070;53.760;9.678;2024-03-23T01:58:30;16.30;;;2.63;;
65373;SDS011;52070;53.760;9.678;2024-03-23T02:00:57;22.40;;;3.03;;
65373;SDS011;52070;53.760;9.678;2024-03-23T02:03:27;15.60;;;2.58;;
65373;SDS011;52070;53.760;9.678;2024-03-23T02:05:54;21.02;;;3.15;;
65373;SDS011;52070;53.760;9.678;2024-03-23T02:08:21;21.42;;;3.10;;
65373;SDS011;52070;53.760;9.678;2024-03-23T02:10:48;29.55;;;3.20;;
65373;SDS011;52070;53.760;9.678;2024-03-23T02:13:17;32.05;;;3.58;;
65373;SDS011;52070;53.760;9.678;2024-03-23T02:18:13;30.30;;;3.00;;
65373;SDS011;52070;53.760;9.678;2024-03-23T02:20:39;25.35;;;3.30;;
65373;SDS011;52070;53.760;9.678;2024-03-23T02:23:12;20.98;;;3.95;;
65373;SDS011;52070;53.760;9.678;2024-03-23T02:25:39;16.02;;;3.10;;
65373;SDS011;52070;53.760;9.678;2024-03-23T02:28:06;21.17;;;3.30;;
65373;SDS011;52070;53.760;9.678;2024-03-23T02:30:33;26.02;;;3.20;;
65373;SDS011;52070;53.760;9.678;2024-03-23T02:32:58;14.77;;;2.50;;
65373;SDS011;52070;53.760;9.678;2024-03-23T02:35:25;30.60;;;3.92;;
65373;SDS011;52070;53.760;9.678;2024-03-23T02:37:51;27.33;;;3.28;;
65373;SDS011;52070;53.760;9.678;2024-03-23T02:40:19;20.20;;;2.72;;
65373;SDS011;52070;53.760;9.678;2024-03-23T02:42:46;22.95;;;3.35;;
65373;SDS011;52070;53.760;9.678;2024-03-23T02:45:12;27.88;;;3.20;;
65373;SDS011;52070;53.760;9.678;2024-03-23T02:47:38;13.90;;;3.28;;
65373;SDS011;52070;53.760;9.678;2024-03-23T02:50:05;36.13;;;3.63;;
65373;SDS011;52070;53.760;9.678;2024-03-23T02:52:32;18.90;;;2.85;;
65373;SDS011;52070;53.760;9.678;2024-03-23T02:54:59;18.67;;;2.83;;
65373;SDS011;52070;53.760;9.678;2024-03-23T02:57:24;20.60;;;2.72;;
65373;SDS011;52070;53.760;9.678;2024-03-23T02:59:52;25.45;;;2.80;;
65373;SDS011;52070;53.760;9.678;2024-03-23T03:02:17;23.50;;;4.32;;
65373;SDS011;52070;53.760;9.678;2024-03-23T03:04:44;22.73;;;3.78;;
65373;SDS011;52070;53.760;9.678;2024-03-23T03:07:10;26.73;;;2.63;;
65373;SDS011;52070;53.760;9.678;2024-03-23T03:09:37;22.70;;;2.70;;
65373;SDS011;52070;53.760;9.678;2024-03-23T03:12:07;13.98;;;2.67;;
65373;SDS011;52070;53.760;9.678;2024-03-23T03:14:34;28.23;;;3.17;;
65373;SDS011;52070;53.760;9.678;2024-03-23T03:17:00;24.35;;;2.80;;
65373;SDS011;52070;53.760;9.678;2024-03-23T03:19:27;22.98;;;2.35;;
65373;SDS011;52070;53.760;9.678;2024-03-23T03:21:53;22.13;;;3.42;;
65373;SDS011;52070;53.760;9.678;2024-03-23T03:24:20;20.60;;;2.97;;
65373;SDS011;52070;53.760;9.678;2024-03-23T03:26:46;19.90;;;2.60;;
65373;SDS011;52070;53.760;9.678;2024-03-23T03:29:13;26.30;;;3.00;;
65373;SDS011;52070;53.760;9.678;2024-03-23T03:31:39;16.15;;;2.80;;
65373;SDS011;52070;53.760;9.678;2024-03-23T03:34:06;21.33;;;3.22;;
65373;SDS011;52070;53.760;9.678;2024-03-23T03:36:32;20.17;;;2.95;;
65373;SDS011;52070;53.760;9.678;2024-03-23T03:38:58;21.27;;;3.03;;
65373;SDS011;52070;53.760;9.678;2024-03-23T03:41:24;19.85;;;2.83;;
65373;SDS011;52070;53.760;9.678;2024-03-23T03:43:51;21.00;;;2.53;;
65373;SDS011;52070;53.760;9.678;2024-03-23T03:46:17;22.95;;;3.03;;
65373;SDS011;52070;53.760;9.678;2024-03-23T03:48:44;23.10;;;3.08;;
65373;SDS011;52070;53.760;9.678;2024-03-23T03:51:10;21.25;;;2.58;;
65373;SDS011;52070;53.760;9.678;2024-03-23T03:53:37;23.58;;;3.17;;
65373;SDS011;52070;53.760;9.678;2024-03-23T03:56:03;28.20;;;3.05;;
65373;SDS011;52070;53.760;9.678;2024-03-23T03:58:30;32.63;;;3.80;;
65373;SDS011;52070;53.760;9.678;2024-03-23T04:00:56;30.35;;;3.17;;
65373;SDS011;52070;53.760;9.678;2024-03-23T04:03:23;18.02;;;3.08;;
65373;SDS011;52070;53.760;9.678;2024-03-23T04:05:52;22.42;;;2.60;;
65373;SDS011;52070;53.760;9.678;2024-03-23T04:08:20;21.42;;;2.92;;
65373;SDS011;52070;53.760;9.678;2024-03-23T04:10:46;16.25;;;2.25;;
65373;SDS011;52070;53.760;9.678;2024-03-23T04:13:13;28.20;;;3.55;;
65373;SDS011;52070;53.760;9.678;2024-03-23T04:15:39;19.75;;;2.58;;
65373;SDS011;52070;53.760;9.678;2024-03-23T04:18:06;25.77;;;2.92;;
65373;SDS011;52070;53.760;9.678;2024-03-23T04:20:32;17.48;;;2.35;;
65373;SDS011;52070;53.760;9.678;2024-03-23T04:22:59;36.88;;;3.17;;
65373;SDS011;52070;53.760;9.678;2024-03-23T04:25:25;15.55;;;3.05;;
65373;SDS011;52070;53.760;9.678;2024-03-23T04:27:52;14.27;;;2.67;;
65373;SDS011;52070;53.760;9.678;2024-03-23T04:30:18;15.48;;;2.72;;
65373;SDS011;52070;53.760;9.678;2024-03-23T04:32:46;28.45;;;3.00;;
65373;SDS011;52070;53.760;9.678;2024-03-23T04:35:13;24.67;;;3.13;;
65373;SDS011;52070;53.760;9.678;2024-03-23T04:37:40;21.60;;;3.20;;
65373;SDS011;52070;53.760;9.678;2024-03-23T04:40:07;20.33;;;2.88;;
65373;SDS011;52070;53.760;9.678;2024-03-23T04:42:34;23.42;;;2.70;;
65373;SDS011;52070;53.760;9.678;2024-03-23T04:45:01;17.63;;;3.10;;
65373;SDS011;52070;53.760;9.678;2024-03-23T04:47:28;20.15;;;2.63;;
65373;SDS011;52070;53.760;9.678;2024-03-23T04:49:54;13.23;;;2.92;;
65373;SDS011;52070;53.760;9.678;2024-03-23T04:52:20;24.42;;;2.72;;
65373;SDS011;52070;53.760;9.678;2024-03-23T04:54:47;18.98;;;2.83;;
65373;SDS011;52070;53.760;9.678;2024-03-23T04:57:14;25.42;;;3.22;;
65373;SDS011;52070;53.760;9.678;2024-03-23T04:59:42;17.13;;;2.65;;
65373;SDS011;52070;53.760;9.678;2024-03-23T05:02:08;19.70;;;3.13;;
65373;SDS011;52070;53.760;9.678;2024-03-23T05:04:35;17.23;;;2.63;;
65373;SDS011;52070;53.760;9.678;2024-03-23T05:07:02;19.50;;;2.38;;
65373;SDS011;52070;53.760;9.678;2024-03-23T05:09:30;14.32;;;2.47;;
65373;SDS011;52070;53.760;9.678;2024-03-23T05:11:56;29.42;;;4.10;;
65373;SDS011;52070;53.760;9.678;2024-03-23T05:14:23;19.38;;;2.95;;
65373;SDS011;52070;53.760;9.678;2024-03-23T05:16:49;18.90;;;2.55;;
65373;SDS011;52070;53.760;9.678;2024-03-23T05:19:15;12.77;;;2.33;;
65373;SDS011;52070;53.760;9.678;2024-03-23T05:21:41;19.92;;;2.60;;
65373;SDS011;52070;53.760;9.678;2024-03-23T05:24:08;22.38;;;2.70;;
65373;SDS011;52070;53.760;9.678;2024-03-23T05:26:34;31.33;;;3.50;;
65373;SDS011;52070;53.760;9.678;2024-03-23T05:29:02;17.60;;;2.53;;
65373;SDS011;52070;53.760;9.678;2024-03-23T05:31:29;12.20;;;2.38;;
65373;SDS011;52070;53.760;9.678;2024-03-23T05:33:57;20.35;;;2.70;;
65373;SDS011;52070;53.760;9.678;2024-03-23T05:36:23;23.00;;;2.70;;
65373;SDS011;52070;53.760;9.678;2024-03-23T05:38:50;22.50;;;2.88;;
65373;SDS011;52070;53.760;9.678;2024-03-23T05:41:16;21.35;;;2.88;;
65373;SDS011;52070;53.760;9.678;2024-03-23T05:43:43;25.23;;;3.17;;
65373;SDS011;52070;53.760;9.678;2024-03-23T05:46:09;22.90;;;3.33;;
65373;SDS011;52070;53.760;9.678;2024-03-23T05:48:36;14.55;;;2.08;;
65373;SDS011;52070;53.760;9.678;2024-03-23T05:51:02;14.13;;;2.55;;
65373;SDS011;52070;53.760;9.678;2024-03-23T05:53:29;20.77;;;2.53;;
65373;SDS011;52070;53.760;9.678;2024-03-23T05:56:02;18.67;;;2.53;;
65373;SDS011;52070;53.760;9.678;2024-03-23T05:58:30;23.08;;;2.63;;
65373;SDS011;52070;53.760;9.678;2024-03-23T06:00:57;20.95;;;2.80;;
65373;SDS011;52070;53.760;9.678;2024-03-23T06:03:25;23.02;;;3.08;;
65373;SDS011;52070;53.760;9.678;2024-03-23T06:05:51;18.88;;;2.65;;
65373;SDS011;52070;53.760;9.678;2024-03-23T06:08:19;13.68;;;2.72;;
65373;SDS011;52070;53.760;9.678;2024-03-23T06:10:46;18.20;;;2.42;;
65373;SDS011;52070;53.760;9.678;2024-03-23T06:13:12;15.75;;;2.70;;
65373;SDS011;52070;53.760;9.678;2024-03-23T06:15:39;29.90;;;3.13;;
65373;SDS011;52070;53.760;9.678;2024-03-23T06:18:05;15.52;;;2.38;;
65373;SDS011;52070;53.760;9.678;2024-03-23T06:20:33;14.73;;;2.75;;
65373;SDS011;52070;53.760;9.678;2024-03-23T06:23:00;17.17;;;3.17;;
65373;SDS011;52070;53.760;9.678;2024-03-23T06:25:29;16.45;;;2.28;;
65373;SDS011;52070;53.760;9.678;2024-03-23T06:27:55;15.48;;;2.72;;
65373;SDS011;52070;53.760;9.678;2024-03-23T06:30:23;27.65;;;3.85;;
65373;SDS011;52070;53.760;9.678;2024-03-23T06:32:49;14.13;;;2.88;;
65373;SDS011;52070;53.760;9.678;2024-03-23T06:35:16;18.58;;;2.85;;
65373;SDS011;52070;53.760;9.678;2024-03-23T06:37:42;22.95;;;2.85;;
65373;SDS011;52070;53.760;9.678;2024-03-23T06:40:09;21.23;;;2.55;;
65373;SDS011;52070;53.760;9.678;2024-03-23T06:42:36;26.00;;;2.95;;
65373;SDS011;52070;53.760;9.678;2024-03-23T06:45:03;18.15;;;2.88;;
65373;SDS011;52070;53.760;9.678;2024-03-23T06:47:30;21.27;;;3.63;;
65373;SDS011;52070;53.760;9.678;2024-03-23T06:49:58;25.35;;;2.88;;
65373;SDS011;52070;53.760;9.678;2024-03-23T06:52:27;34.75;;;3.72;;
65373;SDS011;52070;53.760;9.678;2024-03-23T06:54:54;24.52;;;3.25;;
65373;SDS011;52070;53.760;9.678;2024-03-23T06:57:20;21.60;;;3.13;;
65373;SDS011;52070;53.760;9.678;2024-03-23T06:59:47;24.13;;;2.55;;
65373;SDS011;52070;53.760;9.678;2024-03-23T07:02:13;22.77;;;2.63;;
65373;SDS011;52070;53.760;9.678;2024-03-23T07:04:40;19.33;;;3.05;;
65373;SDS011;52070;53.760;9.678;2024-03-23T07:07:05;20.13;;;3.20;;
65373;SDS011;52070;53.760;9.678;2024-03-23T07:09:32;14.85;;;2.65;;
65373;SDS011;52070;53.760;9.678;2024-03-23T07:11:58;24.98;;;3.05;;
65373;SDS011;52070;53.760;9.678;2024-03-23T07:14:25;16.52;;;3.88;;
65373;SDS011;52070;53.760;9.678;2024-03-23T07:16:51;20.45;;;3.03;;
65373;SDS011;52070;53.760;9.678;2024-03-23T07:19:18;25.25;;;3.17;;
65373;SDS011;52070;53.760;9.678;2024-03-23T07:21:44;27.05;;;2.85;;
65373;SDS011;52070;53.760;9.678;2024-03-23T07:24:13;28.40;;;3.13;;
65373;SDS011;52070;53.760;9.678;2024-03-23T07:26:39;21.48;;;2.60;;
65373;SDS011;52070;53.760;9.678;2024-03-23T07:29:06;15.25;;;2.58;;
65373;SDS011;52070;53.760;9.678;2024-03-23T07:31:32;21.70;;;3.30;;
65373;SDS011;52070;53.760;9.678;2024-03-23T07:33:59;21.75;;;2.92;;
65373;SDS011;52070;53.760;9.678;2024-03-23T07:36:25;19.58;;;2.97;;
65373;SDS011;52070;53.760;9.678;2024-03-23T07:38:52;22.73;;;3.67;;
65373;SDS011;52070;53.760;9.678;2024-03-23T07:41:19;13.10;;;2.83;;
65373;SDS011;52070;53.760;9.678;2024-03-23T07:43:47;19.77;;;2.75;;
65373;SDS011;52070;53.760;9.678;2024-03-23T07:46:15;15.55;;;3.38;;
65373;SDS011;52070;53.760;9.678;2024-03-23T07:48:42;19.98;;;3.15;;
65373;SDS011;52070;53.760;9.678;2024-03-23T07:51:09;18.08;;;2.90;;
65373;SDS011;52070;53.760;9.678;2024-03-23T07:53:37;14.43;;;2.58;;
65373;SDS011;52070;53.760;9.678;2024-03-23T07:58:33;8.27;;;2.60;;
65373;SDS011;52070;53.760;9.678;2024-03-23T08:01:03;12.77;;;2.63;;
65373;SDS011;52070;53.760;9.678;2024-03-23T08:03:33;21.88;;;3.42;;
65373;SDS011;52070;53.760;9.678;2024-03-23T08:06:09;17.55;;;3.47;;
65373;SDS011;52070;53.760;9.678;2024-03-23T08:08:37;23.45;;;2.53;;
65373;SDS011;52070;53.760;9.678;2024-03-23T08:11:04;19.20;;;2.72;;
65373;SDS011;52070;53.760;9.678;2024-03-23T08:13:31;16.15;;;2.75;;
65373;SDS011;52070;53.760;9.678;2024-03-23T08:15:57;20.38;;;3.13;;
65373;SDS011;52070;53.760;9.678;2024-03-23T08:18:25;11.77;;;1.85;;
65373;SDS011;52070;53.760;9.678;2024-03-23T08:21:03;21.55;;;2.92;;
65373;SDS011;52070;53.760;9.678;2024-03-23T08:23:32;16.70;;;2.17;;
65373;SDS011;52070;53.760;9.678;2024-03-23T08:25:59;24.25;;;3.53;;
65373;SDS011;52070;53.760;9.678;2024-03-23T08:28:27;12.82;;;2.38;;
65373;SDS011;52070;53.760;9.678;2024-03-23T08:30:53;18.33;;;2.42;;
65373;SDS011;52070;53.760;9.678;2024-03-23T08:33:21;21.35;;;2.42;;
65373;SDS011;52070;53.760;9.678;2024-03-23T08:35:53;18.17;;;2.90;;
65373;SDS011;52070;53.760;9.678;2024-03-23T08:38:24;10.02;;;2.08;;
65373;SDS011;52070;53.760;9.678;2024-03-23T08:41:04;14.05;;;2.67;;
65373;SDS011;52070;53.760;9.678;2024-03-23T08:43:32;18.05;;;2.58;;
65373;SDS011;52070;53.760;9.678;2024-03-23T08:46:07;18.73;;;2.97;;
65373;SDS011;52070;53.760;9.678;2024-03-23T08:48:38;9.23;;;2.35;;
65373;SDS011;52070;53.760;9.678;2024-03-23T08:53:32;15.85;;;2.63;;
65373;SDS011;52070;53.760;9.678;2024-03-23T08:55:59;11.23;;;2.10;;
65373;SDS011;52070;53.760;9.678;2024-03-23T08:58:28;15.38;;;2.58;;
65373;SDS011;52070;53.760;9.678;2024-03-23T09:00:56;17.50;;;2.85;;
65373;SDS011;52070;53.760;9.678;2024-03-23T09:03:24;10.23;;;2.22;;
65373;SDS011;52070;53.760;9.678;2024-03-23T09:05:50;11.57;;;2.33;;
65373;SDS011;52070;53.760;9.678;2024-03-23T09:08:18;12.75;;;2.38;;
65373;SDS011;52070;53.760;9.678;2024-03-23T09:10:44;17.00;;;2.30;;
65373;SDS011;52070;53.760;9.678;2024-03-23T09:13:11;13.82;;;1.95;;
65373;SDS011;52070;53.760;9.678;2024-03-23T09:15:45;15.65;;;2.33;;
65373;SDS011;52070;53.760;9.678;2024-03-23T09:18:15;16.38;;;3.08;;
65373;SDS011;52070;53.760;9.678;2024-03-23T09:20:42;12.50;;;2.63;;
65373;SDS011;52070;53.760;9.678;2024-03-23T09:23:08;15.75;;;2.28;;
65373;SDS011;52070;53.760;9.678;2024-03-23T09:25:38;19.30;;;2.38;;
65373;SDS011;52070;53.760;9.678;2024-03-23T09:28:05;12.63;;;1.67;;
65373;SDS011;52070;53.760;9.678;2024-03-23T09:30:34;16.10;;;1.92;;
65373;SDS011;52070;53.760;9.678;2024-03-23T09:33:00;14.98;;;2.20;;
65373;SDS011;52070;53.760;9.678;2024-03-23T09:35:27;17.73;;;1.92;;
65373;SDS011;52070;53.760;9.678;2024-03-23T09:37:53;10.80;;;2.05;;
65373;SDS011;52070;53.760;9.678;2024-03-23T09:40:20;10.18;;;1.50;;
65373;SDS011;52070;53.760;9.678;2024-03-23T09:42:50;7.68;;;2.00;;
65373;SDS011;52070;53.760;9.678;2024-03-23T09:45:20;7.28;;;1.40;;
65373;SDS011;52070;53.760;9.678;2024-03-23T09:47:47;7.43;;;1.50;;
65373;SDS011;52070;53.760;9.678;2024-03-23T09:50:16;6.07;;;1.20;;
65373;SDS011;52070;53.760;9.678;2024-03-23T09:52:41;9.80;;;1.40;;
65373;SDS011;52070;53.760;9.678;2024-03-23T09:55:08;6.43;;;1.20;;
65373;SDS011;52070;53.760;9.678;2024-03-23T09:57:35;11.52;;;1.70;;
65373;SDS011;52070;53.760;9.678;2024-03-23T10:00:02;8.48;;;1.27;;
65373;SDS011;52070;53.760;9.678;2024-03-23T10:02:29;9.45;;;1.25;;
65373;SDS011;52070;53.760;9.678;2024-03-23T10:04:56;8.57;;;1.20;;
65373;SDS011;52070;53.760;9.678;2024-03-23T10:07:23;5.68;;;1.05;;
65373;SDS011;52070;53.760;9.678;2024-03-23T10:09:51;7.80;;;1.23;;
65373;SDS011;52070;53.760;9.678;2024-03-23T10:12:17;5.13;;;1.13;;
65373;SDS011;52070;53.760;9.678;2024-03-23T10:14:45;8.98;;;1.42;;
65373;SDS011;52070;53.760;9.678;2024-03-23T10:17:15;6.57;;;1.25;;
65373;SDS011;52070;53.760;9.678;2024-03-23T10:19:44;8.68;;;1.50;;
65373;SDS011;52070;53.760;9.678;2024-03-23T10:22:21;5.47;;;1.27;;
65373;SDS011;52070;53.760;9.678;2024-03-23T10:24:49;5.88;;;1.13;;
65373;SDS011;52070;53.760;9.678;2024-03-23T10:27:16;7.47;;;1.20;;
65373;SDS011;52070;53.760;9.678;2024-03-23T10:29:44;5.80;;;1.20;;
65373;SDS011;52070;53.760;9.678;2024-03-23T10:32:11;10.88;;;2.67;;
65373;SDS011;52070;53.760;9.678;2024-03-23T10:34:39;10.85;;;1.80;;
65373;SDS011;52070;53.760;9.678;2024-03-23T10:37:06;11.18;;;1.73;;
65373;SDS011;52070;53.760;9.678;2024-03-23T10:39:34;10.10;;;1.02;;
65373;SDS011;52070;53.760;9.678;2024-03-23T10:44:33;12.23;;;1.85;;
65373;SDS011;52070;53.760;9.678;2024-03-23T10:46:59;10.45;;;1.23;;
65373;SDS011;52070;53.760;9.678;2024-03-23T10:49:28;5.28;;;1.27;;
65373;SDS011;52070;53.760;9.678;2024-03-23T10:51:58;5.35;;;1.20;;
65373;SDS011;52070;53.760;9.678;2024-03-23T10:54:33;9.10;;;1.10;;
65373;SDS011;52070;53.760;9.678;2024-03-23T10:57:03;14.85;;;1.40;;
65373;SDS011;52070;53.760;9.678;2024-03-23T10:59:31;3.58;;;0.90;;
65373;SDS011;52070;53.760;9.678;2024-03-23T11:01:59;9.98;;;0.88;;
65373;SDS011;52070;53.760;9.678;2024-03-23T11:04:31;2.58;;;0.85;;
65373;SDS011;52070;53.760;9.678;2024-03-23T11:07:01;1.42;;;0.50;;
65373;SDS011;52070;53.760;9.678;2024-03-23T11:14:50;6.90;;;0.88;;
65373;SDS011;52070;53.760;9.678;2024-03-23T11:17:18;4.90;;;1.50;;
65373;SDS011;52070;53.760;9.678;2024-03-23T11:19:54;3.53;;;0.63;;
65373;SDS011;52070;53.760;9.678;2024-03-23T11:22:39;10.90;;;0.82;;
65373;SDS011;52070;53.760;9.678;2024-03-23T11:25:20;11.40;;;1.45;;
65373;SDS011;52070;53.760;9.678;2024-03-23T11:27:51;3.92;;;0.93;;
65373;SDS011;52070;53.760;9.678;2024-03-23T11:30:21;4.20;;;1.15;;
65373;SDS011;52070;53.760;9.678;2024-03-23T11:32:54;10.43;;;1.40;;
65373;SDS011;52070;53.760;9.678;2024-03-23T11:41:02;6.32;;;0.70;;
65373;SDS011;52070;53.760;9.678;2024-03-23T11:43:28;2.15;;;0.50;;
65373;SDS011;52070;53.760;9.678;2024-03-23T11:45:55;1.77;;;0.50;;
65373;SDS011;52070;53.760;9.678;2024-03-23T11:48:23;0.88;;;0.47;;
65373;SDS011;52070;53.760;9.678;2024-03-23T11:50:50;3.20;;;0.70;;
65373;SDS011;52070;53.760;9.678;2024-03-23T11:53:23;5.13;;;0.90;;
65373;SDS011;52070;53.760;9.678;2024-03-23T11:55:56;8.32;;;0.73;;
65373;SDS011;52070;53.760;9.678;2024-03-23T11:58:24;3.03;;;0.63;;
65373;SDS011;52070;53.760;9.678;2024-03-23T12:01:01;3.25;;;0.95;;
65373;SDS011;52070;53.760;9.678;2024-03-23T12:03:28;5.55;;;0.90;;
65373;SDS011;52070;53.760;9.678;2024-03-23T12:06:00;3.53;;;0.50;;
65373;SDS011;52070;53.760;9.678;2024-03-23T12:11:08;3.47;;;0.77;;
65373;SDS011;52070;53.760;9.678;2024-03-23T12:13:39;2.20;;;0.80;;
65373;SDS011;52070;53.760;9.678;2024-03-23T12:16:16;2.80;;;0.73;;
65373;SDS011;52070;53.760;9.678;2024-03-23T12:18:46;2.40;;;0.60;;
65373;SDS011;52070;53.760;9.678;2024-03-23T12:21:14;2.20;;;0.70;;
65373;SDS011;52070;53.760;9.678;2024-03-23T12:23:42;1.35;;;0.35;;
65373;SDS011;52070;53.760;9.678;2024-03-23T12:26:10;7.68;;;1.05;;
65373;SDS011;52070;53.760;9.678;2024-03-23T12:28:37;3.15;;;0.60;;
65373;SDS011;52070;53.760;9.678;2024-03-23T12:31:05;1.85;;;0.65;;
65373;SDS011;52070;53.760;9.678;2024-03-23T12:33:31;1.95;;;0.50;;
65373;SDS011;52070;53.760;9.678;2024-03-23T12:35:58;5.63;;;0.80;;
65373;SDS011;52070;53.760;9.678;2024-03-23T12:38:24;2.15;;;0.52;;
65373;SDS011;52070;53.760;9.678;2024-03-23T12:40:51;1.67;;;0.70;;
65373;SDS011;52070;53.760;9.678;2024-03-23T12:43:18;8.27;;;0.85;;
65373;SDS011;52070;53.760;9.678;2024-03-23T12:45:47;5.78;;;1.00;;
65373;SDS011;52070;53.760;9.678;2024-03-23T12:48:14;4.03;;;0.70;;
65373;SDS011;52070;53.760;9.678;2024-03-23T12:50:40;2.92;;;0.90;;
65373;SDS011;52070;53.760;9.678;2024-03-23T12:53:07;7.47;;;1.35;;
65373;SDS011;52070;53.760;9.678;2024-03-23T12:55:36;6.88;;;1.55;;
65373;SDS011;52070;53.760;9.678;2024-03-23T12:58:03;12.30;;;1.53;;
65373;SDS011;52070;53.760;9.678;2024-03-23T13:00:30;1.48;;;0.63;;
65373;SDS011;52070;53.760;9.678;2024-03-23T13:02:57;5.15;;;0.57;;
65373;SDS011;52070;53.760;9.678;2024-03-23T13:05:22;6.95;;;0.98;;
65373;SDS011;52070;53.760;9.678;2024-03-23T13:07:49;4.03;;;0.70;;
65373;SDS011;52070;53.760;9.678;2024-03-23T13:10:15;4.45;;;0.80;;
65373;SDS011;52070;53.760;9.678;2024-03-23T13:12:42;5.20;;;1.13;;
65373;SDS011;52070;53.760;9.678;2024-03-23T13:15:08;6.28;;;1.63;;
65373;SDS011;52070;53.760;9.678;2024-03-23T13:17:35;6.60;;;0.73;;
65373;SDS011;52070;53.760;9.678;2024-03-23T13:20:02;3.88;;;0.90;;
65373;SDS011;52070;53.760;9.678;2024-03-23T13:22:29;3.92;;;0.70;;
65373;SDS011;52070;53.760;9.678;2024-03-23T13:24:55;2.97;;;0.60;;
65373;SDS011;52070;53.760;9.678;2024-03-23T13:27:22;2.85;;;0.55;;
65373;SDS011;52070;53.760;9.678;2024-03-23T13:29:48;2.72;;;0.55;;
65373;SDS011;52070;53.760;9.678;2024-03-23T13:32:16;2.60;;;0.43;;
65373;SDS011;52070;53.760;9.678;2024-03-23T13:34:41;0.90;;;0.43;;
65373;SDS011;52070;53.760;9.678;2024-03-23T13:37:08;1.45;;;0.50;;
65373;SDS011;52070;53.760;9.678;2024-03-23T13:39:35;2.55;;;0.60;;
65373;SDS011;52070;53.760;9.678;2024-03-23T13:42:02;1.35;;;0.70;;
65373;SDS011;52070;53.760;9.678;2024-03-23T13:44:29;5.95;;;1.02;;
65373;SDS011;52070;53.760;9.678;2024-03-23T13:46:55;7.18;;;1.08;;
65373;SDS011;52070;53.760;9.678;2024-03-23T13:49:25;5.35;;;0.93;;
65373;SDS011;52070;53.760;9.678;2024-03-23T13:51:53;7.28;;;1.50;;
65373;SDS011;52070;53.760;9.678;2024-03-23T13:54:20;4.13;;;1.10;;
65373;SDS011;52070;53.760;9.678;2024-03-23T13:56:48;6.90;;;1.75;;
65373;SDS011;52070;53.760;9.678;2024-03-23T13:59:16;6.25;;;1.15;;
65373;SDS011;52070;53.760;9.678;2024-03-23T14:01:43;6.60;;;0.95;;
65373;SDS011;52070;53.760;9.678;2024-03-23T14:04:11;3.17;;;0.77;;
65373;SDS011;52070;53.760;9.678;2024-03-23T14:06:38;7.68;;;1.20;;
65373;SDS011;52070;53.760;9.678;2024-03-23T14:09:05;9.88;;;1.20;;
65373;SDS011;52070;53.760;9.678;2024-03-23T14:11:35;2.97;;;1.10;;
65373;SDS011;52070;53.760;9.678;2024-03-23T14:14:02;9.85;;;1.27;;
65373;SDS011;52070;53.760;9.678;2024-03-23T14:16:30;8.95;;;1.25;;
65373;SDS011;52070;53.760;9.678;2024-03-23T14:18:56;3.20;;;0.95;;
65373;SDS011;52070;53.760;9.678;2024-03-23T14:21:23;4.22;;;1.20;;
65373;SDS011;52070;53.760;9.678;2024-03-23T14:23:49;9.57;;;1.15;;
65373;SDS011;52070;53.760;9.678;2024-03-23T14:26:16;5.28;;;1.25;;
65373;SDS011;52070;53.760;9.678;2024-03-23T14:28:42;4.50;;;1.10;;
65373;SDS011;52070;53.760;9.678;2024-03-23T14:31:09;5.05;;;1.30;;
65373;SDS011;52070;53.760;9.678;2024-03-23T14:33:38;9.07;;;1.50;;
65373;SDS011;52070;53.760;9.678;2024-03-23T14:36:12;6.03;;;1.20;;
65373;SDS011;52070;53.760;9.678;2024-03-23T14:38:41;3.15;;;0.93;;
65373;SDS011;52070;53.760;9.678;2024-03-23T14:41:08;5.57;;;1.40;;
65373;SDS011;52070;53.760;9.678;2024-03-23T14:43:34;4.65;;;1.00;;
65373;SDS011;52070;53.760;9.678;2024-03-23T14:46:11;3.90;;;1.10;;
65373;SDS011;52070;53.760;9.678;2024-03-23T14:48:39;6.47;;;1.20;;
65373;SDS011;52070;53.760;9.678;2024-03-23T14:51:06;5.28;;;1.20;;
65373;SDS011;52070;53.760;9.678;2024-03-23T14:53:34;4.28;;;1.38;;
65373;SDS011;52070;53.760;9.678;2024-03-23T14:56:02;7.63;;;1.27;;
65373;SDS011;52070;53.760;9.678;2024-03-23T14:58:28;3.15;;;0.90;;
65373;SDS011;52070;53.760;9.678;2024-03-23T15:01:06;5.13;;;1.08;;
65373;SDS011;52070;53.760;9.678;2024-03-23T15:03:35;1.65;;;0.90;;
65373;SDS011;52070;53.760;9.678;2024-03-23T15:06:05;3.83;;;0.65;;
65373;SDS011;52070;53.760;9.678;2024-03-23T15:08:32;4.20;;;0.82;;
65373;SDS011;52070;53.760;9.678;2024-03-23T15:10:59;2.58;;;0.60;;
65373;SDS011;52070;53.760;9.678;2024-03-23T15:13:26;5.43;;;0.63;;
65373;SDS011;52070;53.760;9.678;2024-03-23T15:15:52;2.72;;;0.73;;
65373;SDS011;52070;53.760;9.678;2024-03-23T15:18:18;2.97;;;0.77;;
65373;SDS011;52070;53.760;9.678;2024-03-23T15:20:51;6.13;;;0.63;;
65373;SDS011;52070;53.760;9.678;2024-03-23T15:23:21;4.50;;;0.60;;
65373;SDS011;52070;53.760;9.678;2024-03-23T15:25:58;3.40;;;0.90;;
65373;SDS011;52070;53.760;9.678;2024-03-23T15:28:25;10.35;;;1.10;;
65373;SDS011;52070;53.760;9.678;2024-03-23T15:30:52;5.32;;;1.25;;
65373;SDS011;52070;53.760;9.678;2024-03-23T15:33:18;4.90;;;1.15;;
65373;SDS011;52070;53.760;9.678;2024-03-23T15:35:45;5.82;;;1.98;;
65373;SDS011;52070;53.760;9.678;2024-03-23T15:38:11;3.95;;;1.00;;
65373;SDS011;52070;53.760;9.678;2024-03-23T15:40:38;7.35;;;1.20;;
65373;SDS011;52070;53.760;9.678;2024-03-23T15:43:04;3.85;;;1.40;;
65373;SDS011;52070;53.760;9.678;2024-03-23T15:45:31;7.40;;;1.20;;
65373;SDS011;52070;53.760;9.678;2024-03-23T15:47:58;4.15;;;0.93;;
65373;SDS011;52070;53.760;9.678;2024-03-23T15:50:25;3.45;;;0.60;;
65373;SDS011;52070;53.760;9.678;2024-03-23T15:52:50;3.05;;;0.80;;
65373;SDS011;52070;53.760;9.678;2024-03-23T15:55:17;3.90;;;1.00;;
65373;SDS011;52070;53.760;9.678;2024-03-23T15:57:43;6.70;;;1.02;;
65373;SDS011;52070;53.760;9.678;2024-03-23T16:00:10;8.30;;;1.10;;